EHGR/GLZ METAR and TAF weather

Enter ICAO airport designator
Station Type Date Time Source
EHGR METAR 2022/11/26 09:25 UTC NOAA

EHGR 260925Z AUTO 20007KT 160V240 9999 SCT032 OVC110 07/06 Q1028 BLU


Station Type Date Time Source
EHGR Decoded METAR 2022/11/26 09:25 UTC NOAA

Gilze-Rijen, Netherlands (EHGR) 51-34N 004-56E 24M
Nov 26, 2022 - 04:25 AM EST / 2022.11.26 0925 UTC
Wind: from the SSW (200 degrees) at 8 MPH (7 KT) (direction variable):0
Visibility: greater than 7 mile(s):0
Sky conditions: overcast
Temperature: 44 F (7 C)
Dew Point: 42 F (6 C)
Relative Humidity: 93%
Pressure (altimeter): 30.36 in. Hg (1028 hPa)
ob: EHGR 260925Z AUTO 20007KT 160V240 9999 SCT032 OVC110 07/06 Q1028 BLU
cycle: 9

Station Type Date Time Source
EHGR TAF 2022/11/25 11:09 UTC NOAA

TAF TAF EHGR 251001Z 2511/2523 22007KT CAVOK
TEMPO 2511/2515 SCT016 BKN020

Example: see airport list